Time;durP1;ratioP1;P1;durP2;ratioP2;P2;SDS_P1;SDS_P2;PMS_P1;PMS_P2;Temp;Humidity;BMP_temperature;BMP_pressure;BME280_temperature;BME280_humidity;BME280_pressure;Samples;Min_cycle;Max_cycle;Signal;HPM_P1;HPM_P2
2021/11/24 00:01:50;;;;;;;;;;;;;;;13.13;69.63;100428.75;4946798;29;20265;-77
2021/11/24 00:04:19;;;;;;;;;;;;;;;13.14;69.36;100430.34;4946121;29;20005;-77
2021/11/24 00:06:47;;;;;;;;;;;;;;;13.26;69.31;100439.38;4946126;29;20013;-77
2021/11/24 00:09:13;;;;;;;;;;;;;;;13.76;66.24;100436.53;4949401;29;19949;-77
2021/11/24 00:11:41;;;;;;;;;;;;;;;13.74;66.00;100436.06;4950241;29;19922;-77
2021/11/24 00:14:12;;;;;;;;;;;;;;;13.72;66.51;100439.25;4948965;29;20026;-77
2021/11/24 00:16:37;;;;;;;;;;;;;;;13.72;66.46;100441.25;4947803;29;19918;-77
2021/11/24 00:19:06;;;;;;;;;;;;;;;13.65;66.87;100433.56;4947229;29;19921;-77
2021/11/24 00:21:34;;;;;;;;;;;;;;;13.68;66.55;100443.19;4948324;29;19914;-78
2021/11/24 00:24:03;;;;;;;;;;;;;;;13.76;66.40;100445.72;4948393;29;19914;-77
2021/11/24 00:26:31;;;;;;;;;;;;;;;13.68;66.94;100443.97;4950955;29;19989;-77
2021/11/24 00:28:59;;;;;;;;;;;;;;;13.71;66.29;100446.03;4950208;29;19945;-77
2021/11/24 00:31:27;;;;;;;;;;;;;;;13.63;66.73;100441.50;4948853;29;19920;-77
2021/11/24 00:33:53;;;;;;;;;;;;;;;13.57;67.22;100449.44;4946966;29;19914;-77
2021/11/24 00:36:24;;;;;;;;;;;;;;;13.62;67.26;100446.31;4945615;29;20481;-77
2021/11/24 00:38:49;;;;;;;;;;;;;;;13.47;67.94;100450.06;4946044;29;19914;-77
2021/11/24 00:41:17;;;;;;;;;;;;;;;13.53;67.87;100448.59;4945209;29;19914;-77
2021/11/24 00:43:48;;;;;;;;;;;;;;;13.67;66.96;100447.97;4947216;29;19915;-77
2021/11/24 00:46:17;;;;;;;;;;;;;;;13.67;67.04;100447.16;4948180;29;19921;-77
2021/11/24 00:48:45;;;;;;;;;;;;;;;13.74;66.85;100447.25;4948701;29;19922;-77
2021/11/24 00:51:10;;;;;;;;;;;;;;;13.69;67.38;100456.81;4949499;29;19915;-77
2021/11/24 00:53:41;;;;;;;;;;;;;;;13.66;67.41;100454.75;4949638;29;19915;-77
2021/11/24 00:56:13;;;;;;;;;;;;;;;13.65;67.03;100458.75;4949312;29;19920;-77
2021/11/24 00:58:43;;;;;;;;;;;;;;;13.70;67.12;100464.00;4949714;29;20017;-77
2021/11/24 01:01:12;;;;;;;;;;;;;;;13.57;67.53;100460.59;4949266;29;20370;-77
2021/11/24 01:03:43;;;;;;;;;;;;;;;13.63;67.83;100464.72;4948761;29;20273;-77
2021/11/24 01:06:08;;;;;;;;;;;;;;;13.52;67.98;100463.72;4948327;29;19918;-77
2021/11/24 01:08:34;;;;;;;;;;;;;;;13.42;68.27;100469.94;4947941;29;19914;-77
2021/11/24 01:10:59;;;;;;;;;;;;;;;13.38;68.07;100452.34;4947005;29;20324;-77
2021/11/24 01:13:25;;;;;;;;;;;;;;;13.45;68.06;100468.41;4946484;29;19921;-77
2021/11/24 01:15:54;;;;;;;;;;;;;;;13.51;67.73;100456.53;4947338;29;19914;-77
2021/11/24 01:18:23;;;;;;;;;;;;;;;13.48;67.93;100465.69;4948169;29;19914;-77
2021/11/24 01:20:49;;;;;;;;;;;;;;;13.46;68.40;100458.84;4944799;29;19923;-77
2021/11/24 01:23:15;;;;;;;;;;;;;;;13.34;68.51;100459.84;4947755;29;19938;-77
2021/11/24 01:25:47;;;;;;;;;;;;;;;13.32;68.75;100460.25;4948063;29;19921;-77
2021/11/24 01:28:12;;;;;;;;;;;;;;;13.45;68.07;100457.22;4948756;29;19978;-77
2021/11/24 01:30:40;;;;;;;;;;;;;;;13.41;68.11;100457.16;4947625;29;19919;-77
2021/11/24 01:33:09;;;;;;;;;;;;;;;13.48;67.98;100462.88;4947866;29;19925;-77
2021/11/24 01:35:34;;;;;;;;;;;;;;;13.56;67.16;100464.59;4948005;29;19949;-76
2021/11/24 01:37:59;;;;;;;;;;;;;;;13.70;67.00;100464.00;4949323;29;20354;-76
2021/11/24 01:40:28;;;;;;;;;;;;;;;13.69;67.07;100464.38;4950884;29;19915;-77
2021/11/24 01:42:53;;;;;;;;;;;;;;;13.59;67.32;100472.25;4951431;29;20005;-77
2021/11/24 01:45:20;;;;;;;;;;;;;;;13.50;67.53;100465.28;4949992;29;19914;-77
2021/11/24 01:47:51;;;;;;;;;;;;;;;13.48;68.15;100465.69;4946884;29;19914;-77
2021/11/24 01:50:18;;;;;;;;;;;;;;;13.54;67.81;100460.56;4946277;29;19938;-77
2021/11/24 01:52:47;;;;;;;;;;;;;;;13.48;67.95;100453.69;4946691;29;19983;-77
2021/11/24 01:55:16;;;;;;;;;;;;;;;13.45;68.27;100457.22;4946539;29;19914;-77
2021/11/24 01:57:47;;;;;;;;;;;;;;;13.50;67.69;100454.91;4947038;29;19914;-77
2021/11/24 02:00:15;;;;;;;;;;;;;;;13.43;68.23;100449.22;4948171;29;19915;-77
2021/11/24 02:02:40;;;;;;;;;;;;;;;13.42;67.92;100447.59;4947499;29;19957;-77
2021/11/24 02:05:09;;;;;;;;;;;;;;;13.45;67.78;100451.63;4948292;29;20376;-77
2021/11/24 02:07:34;;;;;;;;;;;;;;;13.40;67.88;100444.38;4947889;29;20368;-77
2021/11/24 02:10:00;;;;;;;;;;;;;;;13.36;68.41;100452.69;4946112;29;19915;-77
2021/11/24 02:12:28;;;;;;;;;;;;;;;13.41;67.94;100457.16;4947454;28;19992;-76
2021/11/24 02:14:56;;;;;;;;;;;;;;;13.40;68.25;100449.97;4951076;29;20066;-77
2021/11/24 02:17:25;;;;;;;;;;;;;;;13.29;68.35;100454.59;4951573;29;19914;-77
2021/11/24 02:19:53;;;;;;;;;;;;;;;13.35;68.08;100455.88;4952457;29;19922;-77
2021/11/24 02:22:21;;;;;;;;;;;;;;;13.36;67.96;100454.69;4952862;29;19943;-77
2021/11/24 02:24:47;;;;;;;;;;;;;;;13.31;68.04;100452.22;4950392;29;19952;-77
2021/11/24 02:27:16;;;;;;;;;;;;;;;13.31;68.23;100457.78;4950181;29;19915;-76
2021/11/24 02:29:44;;;;;;;;;;;;;;;13.24;68.42;100457.69;4949381;29;19915;-77
2021/11/24 02:32:10;;;;;;;;;;;;;;;13.18;69.17;100459.16;4947907;29;19914;-77
2021/11/24 02:34:38;;;;;;;;;;;;;;;13.13;69.14;100451.09;4946856;29;20392;-77
2021/11/24 02:37:09;;;;;;;;;;;;;;;13.15;68.54;100459.91;4949142;29;19914;-76
2021/11/24 02:39:35;;;;;;;;;;;;;;;13.04;69.29;100449.34;4949459;29;19921;-77
2021/11/24 02:42:03;;;;;;;;;;;;;;;12.94;69.86;100449.97;4946911;29;19950;-77
2021/11/24 02:44:32;;;;;;;;;;;;;;;13.09;68.73;100440.66;4947820;29;20004;-77
2021/11/24 02:47:21;;;;;;;;;;;;;;;13.06;68.79;100451.78;4948691;29;19914;-76
2021/11/24 02:49:48;;;;;;;;;;;;;;;13.06;69.06;100446.19;4949676;29;19914;-77
2021/11/24 02:52:14;;;;;;;;;;;;;;;12.98;69.46;100442.47;4948593;29;19914;-77
2021/11/24 02:54:40;;;;;;;;;;;;;;;12.82;69.97;100437.00;4947377;29;20059;-76
2021/11/24 02:57:10;;;;;;;;;;;;;;;13.06;68.95;100449.00;4948536;29;20321;-77
2021/11/24 02:59:41;;;;;;;;;;;;;;;13.03;68.67;100442.16;4949607;29;19978;-77
2021/11/24 03:02:10;;;;;;;;;;;;;;;12.91;69.20;100439.56;4949619;29;19921;-77
2021/11/24 03:04:37;;;;;;;;;;;;;;;12.97;68.96;100443.66;4948113;29;19937;-77
2021/11/24 03:07:08;;;;;;;;;;;;;;;12.92;69.88;100441.16;4947332;29;19914;-76
2021/11/24 03:09:36;;;;;;;;;;;;;;;12.87;69.70;100432.28;4947559;29;19921;-77
2021/11/24 03:12:08;;;;;;;;;;;;;;;12.82;69.59;100433.41;4947563;29;19974;-76
2021/11/24 03:14:36;;;;;;;;;;;;;;;12.72;70.46;100431.22;4945515;29;19914;-77
2021/11/24 03:17:04;;;;;;;;;;;;;;;12.65;70.41;100426.31;4945486;29;19914;-77
2021/11/24 03:19:32;;;;;;;;;;;;;;;12.57;70.94;100428.19;4946029;29;19950;-77
2021/11/24 03:21:58;;;;;;;;;;;;;;;12.65;70.48;100425.53;4945994;29;20374;-76
2021/11/24 03:24:26;;;;;;;;;;;;;;;12.80;69.62;100431.00;4945441;29;19922;-77
2021/11/24 03:26:51;;;;;;;;;;;;;;;12.90;68.55;100435.16;4947398;29;19914;-76
2021/11/24 03:29:20;;;;;;;;;;;;;;;12.99;68.28;100434.88;4947496;29;20404;-76
2021/11/24 03:31:45;;;;;;;;;;;;;;;12.85;68.67;100430.69;4944727;29;19919;-76
2021/11/24 03:34:11;;;;;;;;;;;;;;;12.87;69.41;100433.09;4944367;29;20020;-76
2021/11/24 03:36:37;;;;;;;;;;;;;;;12.84;69.40;100431.88;4945674;29;19914;-76
2021/11/24 03:39:03;;;;;;;;;;;;;;;12.78;69.33;100435.31;4944854;29;19914;-76
2021/11/24 03:41:29;;;;;;;;;;;;;;;12.72;69.85;100432.03;4945126;29;19965;-76
2021/11/24 03:43:57;;;;;;;;;;;;;;;12.68;69.61;100430.38;4944876;29;19918;-76
2021/11/24 03:46:25;;;;;;;;;;;;;;;12.67;69.74;100434.31;4945668;29;19915;-76
2021/11/24 03:48:51;;;;;;;;;;;;;;;12.74;68.70;100435.28;4945702;29;19942;-76
2021/11/24 03:51:20;;;;;;;;;;;;;;;12.82;68.72;100439.00;4945489;29;19915;-76
2021/11/24 03:53:45;;;;;;;;;;;;;;;12.62;69.83;100440.22;4946244;29;19914;-76
2021/11/24 03:56:14;;;;;;;;;;;;;;;12.63;69.59;100439.06;4947190;29;19914;-76
2021/11/24 03:58:42;;;;;;;;;;;;;;;12.74;69.13;100440.06;4947851;29;19914;-77
2021/11/24 04:01:12;;;;;;;;;;;;;;;12.73;68.78;100438.41;4948499;29;19925;-76
2021/11/24 04:03:41;;;;;;;;;;;;;;;12.66;69.01;100435.50;4948227;29;20008;-76
2021/11/24 04:06:09;;;;;;;;;;;;;;;12.71;68.85;100429.63;4946954;29;19915;-77
2021/11/24 04:08:35;;;;;;;;;;;;;;;12.69;68.58;100426.41;4947322;29;19937;-76
2021/11/24 04:11:03;;;;;;;;;;;;;;;12.67;69.04;100434.31;4947316;29;19918;-76
2021/11/24 04:13:32;;;;;;;;;;;;;;;12.62;68.88;100440.22;4947202;29;19915;-76
2021/11/24 04:15:57;;;;;;;;;;;;;;;12.71;68.20;100440.78;4947190;29;20001;-76
2021/11/24 04:18:25;;;;;;;;;;;;;;;12.74;68.57;100451.22;4947429;29;20012;-76
2021/11/24 04:20:56;;;;;;;;;;;;;;;12.65;68.58;100447.84;4947242;29;20289;-76
2021/11/24 04:23:27;;;;;;;;;;;;;;;12.62;68.55;100456.94;4946789;29;19964;-77
2021/11/24 04:25:53;;;;;;;;;;;;;;;12.57;69.37;100456.09;4945406;29;19921;-76
2021/11/24 04:28:18;;;;;;;;;;;;;;;12.49;69.27;100457.13;4946181;29;19922;-77
2021/11/24 04:30:43;;;;;;;;;;;;;;;12.49;69.47;100454.34;4945622;29;19922;-77
2021/11/24 04:33:09;;;;;;;;;;;;;;;12.54;69.46;100458.81;4947389;29;19915;-77
2021/11/24 04:35:39;;;;;;;;;;;;;;;12.48;69.57;100455.53;4946057;28;20366;-77
2021/11/24 04:38:07;;;;;;;;;;;;;;;12.46;69.23;100451.47;4946803;29;20045;-76
2021/11/24 04:40:33;;;;;;;;;;;;;;;12.36;69.75;100455.69;4947712;29;19923;-76
2021/11/24 04:43:05;;;;;;;;;;;;;;;12.40;69.73;100459.34;4946629;29;20338;-77
2021/11/24 04:45:31;;;;;;;;;;;;;;;12.47;69.33;100448.34;4948054;29;19930;-77
2021/11/24 04:47:56;;;;;;;;;;;;;;;12.42;69.79;100456.19;4949213;29;19914;-76
2021/11/24 04:50:25;;;;;;;;;;;;;;;12.38;69.66;100456.13;4948270;29;19918;-76
2021/11/24 04:52:50;;;;;;;;;;;;;;;12.27;69.96;100466.25;4947159;29;19915;-78
2021/11/24 04:55:18;;;;;;;;;;;;;;;12.26;70.59;100461.84;4946503;29;19921;-76
2021/11/24 04:57:46;;;;;;;;;;;;;;;12.27;69.83;100460.69;4945434;29;19920;-76
2021/11/24 05:00:18;;;;;;;;;;;;;;;12.17;70.14;100452.91;4943870;29;19921;-77
2021/11/24 05:02:45;;;;;;;;;;;;;;;12.18;70.05;100452.53;4944109;29;19914;-76
2021/11/24 05:05:12;;;;;;;;;;;;;;;12.15;70.65;100452.47;4943591;29;20274;-76
2021/11/24 05:07:41;;;;;;;;;;;;;;;12.20;69.93;100450.19;4943930;29;20001;-76
2021/11/24 05:10:07;;;;;;;;;;;;;;;12.26;69.47;100453.50;4944989;29;19918;-76
2021/11/24 05:12:35;;;;;;;;;;;;;;;12.28;69.45;100456.72;4946614;29;19979;-76
2021/11/24 05:15:07;;;;;;;;;;;;;;;12.39;68.95;100463.31;4945924;29;19965;-76
2021/11/24 05:17:36;;;;;;;;;;;;;;;12.34;69.01;100460.81;4946667;29;19914;-77
2021/11/24 05:20:07;;;;;;;;;;;;;;;12.39;68.98;100457.72;4948969;29;19965;-77
2021/11/24 05:22:35;;;;;;;;;;;;;;;12.38;69.10;100466.47;4947896;29;19914;-76
2021/11/24 05:25:01;;;;;;;;;;;;;;;12.35;69.21;100468.00;4948668;29;19915;-77
2021/11/24 05:27:29;;;;;;;;;;;;;;;12.35;68.94;100462.41;4943844;29;20377;-76
2021/11/24 05:30:00;;;;;;;;;;;;;;;12.37;68.76;100468.47;4945640;29;19915;-77
2021/11/24 05:32:25;;;;;;;;;;;;;;;12.44;68.49;100465.00;4947073;29;19914;-77
2021/11/24 05:34:57;;;;;;;;;;;;;;;12.39;68.56;100470.88;4946427;29;19926;-77
2021/11/24 05:37:22;;;;;;;;;;;;;;;12.45;68.59;100478.56;4946351;29;19914;-76
2021/11/24 05:39:48;;;;;;;;;;;;;;;12.47;68.25;100483.81;4947045;29;19925;-77
2021/11/24 05:42:17;;;;;;;;;;;;;;;12.44;68.59;100485.34;4946865;29;19970;-76
2021/11/24 05:44:47;;;;;;;;;;;;;;;12.47;68.19;100475.44;4946547;29;20416;-76
2021/11/24 05:47:50;;;;;;;;;;;;;;;12.39;68.61;100484.81;4947804;28;20373;-77
2021/11/24 05:50:07;;;;;;;;;;;;;;;12.36;67.92;100488.34;4966250;29;19914;-77
2021/11/24 05:52:38;;;;;;;;;;;;;;;12.38;68.61;100488.78;4949213;29;19921;-78
2021/11/24 05:55:07;;;;;;;;;;;;;;;12.36;68.41;100491.13;4947892;29;19915;-76
2021/11/24 05:57:38;;;;;;;;;;;;;;;12.33;69.00;100487.09;4947322;29;19914;-76
2021/11/24 06:00:09;;;;;;;;;;;;;;;12.37;68.86;100492.75;4946940;29;19915;-77
2021/11/24 06:02:35;;;;;;;;;;;;;;;12.43;68.02;100503.25;4947797;29;20285;-76
2021/11/24 06:05:03;;;;;;;;;;;;;;;12.43;67.75;100506.06;4947771;29;19914;-77
2021/11/24 06:07:28;;;;;;;;;;;;;;;12.46;68.00;100499.72;4948682;29;19926;-77
2021/11/24 06:09:57;;;;;;;;;;;;;;;12.61;67.36;100503.59;4949591;29;19914;-76
2021/11/24 06:12:23;;;;;;;;;;;;;;;12.75;66.66;100497.50;4948356;29;19914;-76
2021/11/24 06:14:48;;;;;;;;;;;;;;;12.76;66.48;100505.50;4945453;29;19915;-76
2021/11/24 06:17:14;;;;;;;;;;;;;;;12.72;66.97;100509.41;4948088;29;19914;-77
2021/11/24 06:19:39;;;;;;;;;;;;;;;12.94;66.66;100508.63;4948785;29;19915;-77
2021/11/24 06:22:04;;;;;;;;;;;;;;;12.85;66.54;100508.06;4948331;29;19945;-77
2021/11/24 06:24:33;;;;;;;;;;;;;;;12.82;67.23;100512.41;4949141;29;19968;-77
2021/11/24 06:27:01;;;;;;;;;;;;;;;12.87;66.52;100514.06;4950156;29;19918;-77
2021/11/24 06:29:30;;;;;;;;;;;;;;;12.78;66.68;100507.91;4949187;29;19965;-77
2021/11/24 06:31:58;;;;;;;;;;;;;;;12.85;66.16;100510.84;4950465;29;20362;-76
2021/11/24 06:34:27;;;;;;;;;;;;;;;12.85;66.36;100513.66;4948731;29;19925;-79
2021/11/24 06:36:55;;;;;;;;;;;;;;;12.90;66.27;100524.53;4947408;29;19969;-77
2021/11/24 06:39:22;;;;;;;;;;;;;;;12.92;66.32;100518.56;4947520;29;19918;-77
2021/11/24 06:41:51;;;;;;;;;;;;;;;12.92;66.22;100518.56;4950485;29;19953;-76
2021/11/24 06:44:16;;;;;;;;;;;;;;;12.95;66.20;100532.59;4949840;29;20362;-77
2021/11/24 06:46:42;;;;;;;;;;;;;;;13.04;65.81;100533.16;4945756;29;19922;-77
2021/11/24 06:49:08;;;;;;;;;;;;;;;14.09;63.20;100528.88;4945222;29;19924;-77
2021/11/24 06:51:33;;;;;;;;;;;;;;;14.94;60.14;100522.75;4945303;29;20367;-76
2021/11/24 06:53:59;;;;;;;;;;;;;;;15.50;57.87;100523.66;4944159;29;19922;-77
2021/11/24 06:56:24;;;;;;;;;;;;;;;15.93;56.03;100524.84;4945840;29;19914;-76
2021/11/24 06:58:51;;;;;;;;;;;;;;;16.58;54.29;100531.59;4944417;28;20330;-76
2021/11/24 07:01:16;;;;;;;;;;;;;;;17.18;52.21;100528.97;4940763;29;20357;-76
2021/11/24 07:03:42;;;;;;;;;;;;;;;17.12;51.76;100539.00;4940475;29;19921;-78
2021/11/24 07:06:07;;;;;;;;;;;;;;;17.73;51.30;100545.47;4940508;29;19926;-76
2021/11/24 07:08:33;;;;;;;;;;;;;;;18.40;49.14;100540.13;4940681;29;19953;-77
2021/11/24 07:11:01;;;;;;;;;;;;;;;18.53;47.39;100535.66;4939948;29;19921;-75
2021/11/24 07:13:27;;;;;;;;;;;;;;;18.61;46.82;100548.50;4940014;29;19915;-76
2021/11/24 07:15:52;;;;;;;;;;;;;;;18.88;47.57;100550.84;4940727;29;19914;-74
2021/11/24 07:18:18;;;;;;;;;;;;;;;18.89;47.89;100547.59;4939904;29;20289;-76
2021/11/24 07:20:43;;;;;;;;;;;;;;;19.29;47.64;100551.78;4940103;29;19960;-76
2021/11/24 07:23:08;;;;;;;;;;;;;;;19.83;46.39;100555.03;4939156;29;20277;-76
2021/11/24 07:25:34;;;;;;;;;;;;;;;20.10;45.73;100551.53;4939989;29;19915;-75
2021/11/24 07:28:00;;;;;;;;;;;;;;;20.14;45.81;100560.78;4939935;29;20405;-77
2021/11/24 07:30:25;;;;;;;;;;;;;;;20.28;44.95;100557.78;4940377;29;19914;-77
2021/11/24 07:32:51;;;;;;;;;;;;;;;20.40;44.97;100560.09;4939615;29;20013;-79
2021/11/24 07:35:16;;;;;;;;;;;;;;;20.94;43.81;100565.13;4939650;29;19925;-78
2021/11/24 07:37:42;;;;;;;;;;;;;;;20.77;42.89;100566.13;4940257;29;19970;-77
2021/11/24 07:40:09;;;;;;;;;;;;;;;20.63;42.62;100562.25;4939705;29;20441;-80
2021/11/24 07:42:34;;;;;;;;;;;;;;;20.93;43.02;100564.31;4939363;29;19948;-81
2021/11/24 07:45:00;;;;;;;;;;;;;;;21.09;42.35;100560.03;4939582;29;19957;-77
2021/11/24 07:47:27;;;;;;;;;;;;;;;21.44;41.56;100565.19;4956928;29;20356;-79
2021/11/24 07:49:53;;;;;;;;;;;;;;;20.97;41.33;100563.44;4940149;29;19965;-77
2021/11/24 07:52:18;;;;;;;;;;;;;;;21.31;41.54;100558.56;4939433;29;19965;-76
2021/11/24 07:54:45;;;;;;;;;;;;;;;21.59;41.64;100565.78;4939396;29;19964;-78
2021/11/24 07:57:11;;;;;;;;;;;;;;;21.82;40.89;100570.66;4939594;29;19921;-79
2021/11/24 07:59:37;;;;;;;;;;;;;;;22.07;39.83;100572.25;4939281;29;19914;-80
2021/11/24 08:02:03;;;;;;;;;;;;;;;22.11;38.67;100567.38;4939617;29;19915;-72
2021/11/24 08:04:31;;;;;;;;;;;;;;;21.37;41.51;100558.88;4939800;29;20251;-74
2021/11/24 08:07:01;;;;;;;;;;;;;;;21.74;40.50;100559.91;4939372;29;19914;-73
2021/11/24 08:09:30;;;;;;;;;;;;;;;20.95;43.90;100560.25;4939222;29;19914;-71
2021/11/24 08:11:58;;;;;;;;;;;;;;;21.29;41.31;100563.78;4938651;29;19914;-78
2021/11/24 08:14:24;;;;;;;;;;;;;;;21.27;39.83;100560.59;4940030;29;19937;-77
2021/11/24 08:16:49;;;;;;;;;;;;;;;21.78;39.07;100561.41;4939153;29;20096;-79
2021/11/24 08:19:15;;;;;;;;;;;;;;;22.05;39.04;100569.03;4939964;29;19914;-80
2021/11/24 08:21:41;;;;;;;;;;;;;;;22.15;39.00;100570.91;4939179;29;20338;-78
2021/11/24 08:24:06;;;;;;;;;;;;;;;22.05;38.78;100569.03;4939005;29;19925;-79
2021/11/24 08:26:32;;;;;;;;;;;;;;;22.23;39.88;100570.34;4939274;29;19914;-77
2021/11/24 08:28:57;;;;;;;;;;;;;;;22.58;39.12;100562.38;4939454;29;19925;-77
2021/11/24 08:31:23;;;;;;;;;;;;;;;22.73;39.15;100562.88;4938733;29;19915;-79
2021/11/24 08:33:48;;;;;;;;;;;;;;;22.84;38.82;100563.44;4939269;29;19972;-80
2021/11/24 08:36:15;;;;;;;;;;;;;;;22.94;38.21;100559.63;4939161;29;20405;-81
2021/11/24 08:38:42;;;;;;;;;;;;;;;22.74;38.24;100562.47;4938860;29;19921;-78
2021/11/24 08:41:10;;;;;;;;;;;;;;;22.40;37.16;100564.78;4939098;29;19922;-79
2021/11/24 08:43:36;;;;;;;;;;;;;;;20.86;40.38;100564.38;4955933;29;19915;-81
2021/11/24 08:46:01;;;;;;;;;;;;;;;21.61;40.06;100565.34;4939023;29;19914;-79
2021/11/24 08:48:28;;;;;;;;;;;;;;;21.89;40.41;100556.38;4938974;29;20046;-79
2021/11/24 08:50:54;;;;;;;;;;;;;;;21.83;39.61;100558.09;4939317;29;19914;-83
2021/11/24 08:53:20;;;;;;;;;;;;;;;21.13;39.81;100566.44;4939169;29;20381;-78
2021/11/24 08:55:45;;;;;;;;;;;;;;;20.97;40.99;100563.44;4939400;29;19914;-80
2021/11/24 08:58:11;;;;;;;;;;;;;;;21.55;40.60;100565.03;4939112;29;20354;-81
2021/11/24 09:00:37;;;;;;;;;;;;;;;21.92;39.89;100561.16;4938605;29;20345;-78
2021/11/24 09:03:02;;;;;;;;;;;;;;;21.90;39.42;100557.97;4938660;29;19970;-80
2021/11/24 09:05:28;;;;;;;;;;;;;;;22.43;38.34;100561.88;4939124;29;19919;-80
2021/11/24 09:07:54;;;;;;;;;;;;;;;22.58;38.15;100561.56;4939224;29;20358;-80
2021/11/24 09:10:20;;;;;;;;;;;;;;;22.61;36.93;100555.03;4923102;29;20366;-83
2021/11/24 09:12:45;;;;;;;;;;;;;;;21.98;37.70;100556.59;4939853;29;19957;-78
2021/11/24 09:15:11;;;;;;;;;;;;;;;21.87;38.91;100547.50;4938242;29;19921;-80
2021/11/24 09:17:36;;;;;;;;;;;;;;;21.32;39.11;100551.66;4938671;29;19965;-77
2021/11/24 09:20:02;;;;;;;;;;;;;;;20.61;40.58;100544.94;4938366;29;20286;-80
2021/11/24 09:22:28;;;;;;;;;;;;;;;19.63;43.01;100539.88;4939617;29;19940;-78
2021/11/24 09:24:56;;;;;;;;;;;;;;;19.58;44.24;100538.25;4942605;29;19918;-82
2021/11/24 09:27:34;;;;;;;;;;;;;;;19.29;44.05;100537.69;4959155;29;19914;-79
2021/11/24 09:30:01;;;;;;;;;;;;;;;19.35;44.14;100536.03;4942883;29;20013;-78
2021/11/24 09:32:27;;;;;;;;;;;;;;;19.19;43.18;100529.31;4941986;29;20345;-80
2021/11/24 09:34:52;;;;;;;;;;;;;;;19.08;43.90;100533.00;4941939;29;19927;-78
2021/11/24 09:37:18;;;;;;;;;;;;;;;18.63;44.79;100528.38;4942456;29;19919;-83
2021/11/24 09:39:43;;;;;;;;;;;;;;;18.33;45.47;100533.31;4942447;29;19918;-78
2021/11/24 09:42:10;;;;;;;;;;;;;;;18.47;45.15;100521.19;4941929;29;20408;-80
2021/11/24 09:44:37;;;;;;;;;;;;;;;18.86;44.92;100517.44;4959598;29;20374;-81
2021/11/24 09:47:06;;;;;;;;;;;;;;;18.95;44.85;100516.94;4942158;29;19921;-81
2021/11/24 09:49:33;;;;;;;;;;;;;;;18.74;45.85;100504.56;4941978;29;19915;-78
2021/11/24 09:51:59;;;;;;;;;;;;;;;18.73;46.31;100508.63;4942113;29;19918;-80
2021/11/24 09:54:27;;;;;;;;;;;;;;;19.09;45.56;100505.59;4941949;29;19914;-83
2021/11/24 09:56:56;;;;;;;;;;;;;;;18.80;46.29;100497.31;4942053;29;19921;-84
2021/11/24 09:59:21;;;;;;;;;;;;;;;19.24;45.29;100501.47;4942095;29;19969;-80
2021/11/24 10:01:47;;;;;;;;;;;;;;;19.08;44.46;100498.34;4942071;29;19914;-81
2021/11/24 10:04:12;;;;;;;;;;;;;;;18.60;45.85;100501.81;4941899;29;19914;-78
2021/11/24 10:06:39;;;;;;;;;;;;;;;18.50;46.19;100499.84;4941828;29;19918;-71
2021/11/24 10:09:05;;;;;;;;;;;;;;;18.65;46.08;100490.13;4941722;29;19921;-73
2021/11/24 10:11:31;;;;;;;;;;;;;;;17.84;47.66;100499.63;4942152;29;19914;-72
2021/11/24 10:13:56;;;;;;;;;;;;;;;17.61;47.93;100502.88;4941844;29;19960;-71
2021/11/24 10:16:25;;;;;;;;;;;;;;;17.48;48.52;100505.28;4941703;29;19921;-72
2021/11/24 10:18:58;;;;;;;;;;;;;;;17.50;48.36;100495.22;4942067;29;19958;-70
2021/11/24 10:21:23;;;;;;;;;;;;;;;17.42;48.46;100488.03;4942032;29;19921;-71
2021/11/24 10:23:53;;;;;;;;;;;;;;;17.13;49.02;100481.56;4942010;29;19914;-71
2021/11/24 10:26:32;;;;;;;;;;;;;;;16.94;49.97;100476.34;4941319;29;19918;-71
2021/11/24 10:29:06;;;;;;;;;;;;;;;16.69;50.02;100488.28;4958435;29;19953;-71
2021/11/24 10:31:54;;;;;;;;;;;;;;;16.56;51.57;100475.00;4941394;29;19923;-71
2021/11/24 10:34:28;;;;;;;;;;;;;;;16.42;51.64;100478.56;4928864;29;19941;-70
2021/11/24 10:37:01;;;;;;;;;;;;;;;16.17;52.19;100482.06;4941421;29;20057;-70
2021/11/24 10:39:27;;;;;;;;;;;;;;;16.23;51.64;100480.47;4941365;29;19914;-70
2021/11/24 10:42:01;;;;;;;;;;;;;;;16.26;51.69;100475.28;4941806;29;19914;-70
2021/11/24 10:44:28;;;;;;;;;;;;;;;16.12;52.20;100479.63;4942109;29;20247;-71
2021/11/24 10:46:54;;;;;;;;;;;;;;;16.09;52.23;100477.63;4941216;29;19921;-71
2021/11/24 10:49:28;;;;;;;;;;;;;;;16.11;51.85;100468.81;4941212;29;19914;-71
2021/11/24 10:51:54;;;;;;;;;;;;;;;16.23;52.85;100471.25;4941093;29;19915;-71
2021/11/24 10:54:20;;;;;;;;;;;;;;;16.28;52.31;100470.06;4941036;29;19961;-71
2021/11/24 10:57:05;;;;;;;;;;;;;;;16.22;52.48;100478.88;4941648;29;20009;-71
2021/11/24 10:59:32;;;;;;;;;;;;;;;16.12;52.48;100464.78;4942082;29;20354;-71
2021/11/24 11:02:16;;;;;;;;;;;;;;;16.02;53.48;100460.72;4941082;29;19915;-71
2021/11/24 11:04:54;;;;;;;;;;;;;;;15.90;53.00;100466.69;4941483;29;19942;-73
2021/11/24 11:07:19;;;;;;;;;;;;;;;15.90;52.91;100459.06;4941459;29;19914;-71
2021/11/24 11:09:45;;;;;;;;;;;;;;;15.97;53.30;100452.69;4941818;29;19965;-70
2021/11/24 11:12:10;;;;;;;;;;;;;;;16.08;53.13;100449.94;4941755;29;19914;-71
2021/11/24 11:14:36;;;;;;;;;;;;;;;16.17;53.05;100448.38;4942392;29;20286;-76
2021/11/24 11:17:01;;;;;;;;;;;;;;;16.18;52.87;100449.97;4942222;29;19914;-71
2021/11/24 11:19:37;;;;;;;;;;;;;;;16.15;52.67;100447.97;4942280;29;19915;-71
2021/11/24 11:22:03;;;;;;;;;;;;;;;16.13;53.41;100450.34;4942737;29;20009;-71
2021/11/24 11:24:28;;;;;;;;;;;;;;;16.04;53.02;100441.50;4940478;29;19957;-70
2021/11/24 11:26:54;;;;;;;;;;;;;;;16.02;53.09;100443.91;4941196;29;19914;-71
2021/11/24 11:29:21;;;;;;;;;;;;;;;16.03;53.56;100439.88;4941107;29;20016;-71
2021/11/24 11:31:46;;;;;;;;;;;;;;;16.12;53.46;100425.50;4940376;29;19914;-71
2021/11/24 11:34:14;;;;;;;;;;;;;;;16.17;53.10;100428.72;4940078;29;19925;-71
2021/11/24 11:36:41;;;;;;;;;;;;;;;16.20;53.28;100438.38;4940436;29;19915;-71
2021/11/24 11:39:06;;;;;;;;;;;;;;;16.24;53.66;100439.16;4940448;29;20013;-73
2021/11/24 11:41:37;;;;;;;;;;;;;;;16.04;52.84;100424.69;4940236;29;20021;-72
2021/11/24 11:44:04;;;;;;;;;;;;;;;15.98;53.59;100420.66;4940520;29;20286;-72
2021/11/24 11:46:29;;;;;;;;;;;;;;;16.20;53.89;100421.53;4939212;29;19914;-72
2021/11/24 11:48:55;;;;;;;;;;;;;;;16.38;52.92;100415.97;4940341;29;19957;-72
2021/11/24 11:51:32;;;;;;;;;;;;;;;16.48;53.32;100413.19;4940609;29;19922;-80
2021/11/24 11:53:59;;;;;;;;;;;;;;;16.41;53.32;100415.19;4940972;29;20397;-89
2021/11/24 11:56:28;;;;;;;;;;;;;;;16.35;53.60;100414.78;4940145;29;19914;-89
2021/11/24 11:58:53;;;;;;;;;;;;;;;16.47;53.37;100413.59;4940343;29;19994;-87
2021/11/24 12:01:27;;;;;;;;;;;;;;;16.55;53.30;100408.78;4939709;29;19914;-88
2021/11/24 12:03:59;;;;;;;;;;;;;;;16.60;54.58;100412.00;4940037;29;19914;-77
2021/11/24 12:06:26;;;;;;;;;;;;;;;16.70;53.55;100411.22;4939717;29;19969;-78
2021/11/24 12:09:08;;;;;;;;;;;;;;;16.64;53.74;100409.22;5090944;28;19966;-86
2021/11/24 12:11:52;;;;;;;;;;;;;;;16.61;53.13;100407.97;5124558;28;19927;-84
2021/11/24 12:14:36;;;;;;;;;;;;;;;16.70;52.58;100410.41;5090565;28;19916;-83
2021/11/24 12:17:22;;;;;;;;;;;;;;;16.57;53.32;100407.19;5091386;28;20271;-79
2021/11/24 12:19:50;;;;;;;;;;;;;;;16.59;53.62;100404.78;5090859;28;19924;-83
2021/11/24 12:22:15;;;;;;;;;;;;;;;16.60;53.27;100400.75;5090682;28;20082;-81
2021/11/24 12:24:41;;;;;;;;;;;;;;;16.62;54.10;100387.16;5090330;28;20394;-85
2021/11/24 12:27:06;;;;;;;;;;;;;;;16.63;53.32;100385.13;5090117;28;19916;-83
2021/11/24 12:29:52;;;;;;;;;;;;;;;16.66;53.71;100387.94;5090750;28;19960;-87
2021/11/24 12:32:18;;;;;;;;;;;;;;;16.74;53.46;100383.97;5090081;28;19920;-79
2021/11/24 12:34:53;;;;;;;;;;;;;;;16.82;53.89;100387.56;5090490;28;20259;-85
2021/11/24 12:37:19;;;;;;;;;;;;;;;16.89;53.04;100381.97;5091122;28;19917;-83
2021/11/24 12:39:45;;;;;;;;;;;;;;;16.92;53.03;100377.56;5090876;28;20310;-85